createdAt,value
2018-01-18T00:01:19.672Z,4.03
2018-01-18T00:03:47.716Z,4.03
2018-01-18T00:09:06.195Z,4.06
2018-01-18T00:11:41.124Z,4.04
2018-01-18T00:14:14.955Z,4.06
2018-01-18T00:16:45.693Z,4.06
2018-01-18T00:19:17.287Z,4.04
2018-01-18T00:21:48.522Z,4.04
2018-01-18T00:24:19.233Z,4.04
2018-01-18T00:26:51.934Z,4.04
2018-01-18T00:29:20.925Z,4.02
2018-01-18T00:31:57.063Z,4.00
2018-01-18T00:34:27.112Z,4.03
2018-01-18T00:37:05.057Z,4.00
2018-01-18T00:39:33.958Z,4.04
2018-01-18T00:42:06.774Z,4.05
2018-01-18T00:44:36.973Z,4.03
2018-01-18T00:47:05.741Z,4.03
2018-01-18T00:49:35.053Z,4.02
2018-01-18T00:52:04.059Z,4.00
2018-01-18T00:54:32.116Z,3.97
2018-01-18T00:57:00.641Z,3.97
2018-01-18T00:59:31.072Z,3.94
2018-01-18T01:02:04.513Z,3.92
2018-01-18T01:04:32.805Z,3.91
2018-01-18T01:07:02.171Z,3.86
2018-01-18T01:09:30.126Z,3.82
2018-01-18T01:11:58.797Z,3.77
2018-01-18T01:14:26.990Z,3.81
2018-01-18T01:16:57.787Z,3.77
2018-01-18T01:19:35.978Z,3.78
2018-01-18T01:24:46.148Z,3.76
2018-01-18T01:27:20.386Z,3.75
2018-01-18T01:29:52.137Z,3.73
2018-01-18T01:32:22.200Z,3.73
2018-01-18T01:34:52.802Z,3.71
2018-01-18T01:37:31.271Z,3.75
2018-01-18T01:40:09.917Z,3.74
2018-01-18T01:42:39.458Z,3.74
2018-01-18T01:45:08.110Z,3.73
2018-01-18T01:47:40.337Z,3.73
2018-01-18T01:50:10.607Z,3.68
2018-01-18T01:55:14.328Z,3.68
2018-01-18T01:57:43.364Z,3.67
2018-01-18T02:00:11.528Z,3.67
2018-01-18T02:02:40.230Z,3.70
2018-01-18T02:07:51.581Z,3.69
2018-01-18T02:10:20.406Z,3.72
2018-01-18T02:12:51.206Z,3.75
2018-01-18T02:15:23.935Z,3.79
2018-01-18T02:17:59.501Z,3.77
2018-01-18T02:20:29.872Z,3.78
2018-01-18T02:22:58.102Z,3.78
2018-01-18T02:25:26.746Z,3.78
2018-01-18T02:27:55.309Z,3.79
2018-01-18T02:33:00.153Z,3.78
2018-01-18T02:35:32.614Z,3.81
2018-01-18T02:40:34.576Z,3.81
2018-01-18T02:43:03.068Z,3.79
2018-01-18T02:45:32.380Z,3.81
2018-01-18T02:48:01.145Z,3.82
2018-01-18T02:50:29.359Z,3.80
2018-01-18T02:53:00.204Z,3.83
2018-01-18T02:55:29.106Z,3.84
2018-01-18T02:57:59.906Z,3.84
2018-01-18T03:00:28.085Z,3.82
2018-01-18T03:02:56.002Z,3.83
2018-01-18T03:05:34.536Z,3.85
2018-01-18T03:08:03.797Z,3.87
2018-01-18T03:10:31.628Z,3.85
2018-01-18T03:13:00.672Z,3.89
2018-01-18T03:15:28.496Z,3.89
2018-01-18T03:17:58.020Z,3.89
2018-01-18T03:20:36.510Z,3.91
2018-01-18T03:23:04.600Z,3.91
2018-01-18T03:25:35.371Z,3.91
2018-01-18T03:28:06.182Z,3.91
2018-01-18T03:30:35.142Z,3.92
2018-01-18T03:33:04.461Z,3.97
2018-01-18T03:35:32.292Z,3.99
2018-01-18T03:38:00.860Z,3.95
2018-01-18T03:40:28.750Z,3.98
2018-01-18T03:42:56.576Z,3.99
2018-01-18T03:45:24.813Z,3.95
2018-01-18T03:47:53.729Z,3.96
2018-01-18T03:50:23.693Z,3.94
2018-01-18T03:52:59.437Z,3.94
2018-01-18T03:55:34.694Z,3.98
2018-01-18T03:58:04.659Z,3.95
2018-01-18T04:00:38.686Z,3.93
2018-01-18T04:03:06.822Z,3.92
2018-01-18T04:05:39.643Z,3.93
2018-01-18T04:08:09.418Z,3.98
2018-01-18T04:10:42.108Z,3.98
2018-01-18T04:13:14.324Z,3.96
2018-01-18T04:15:47.908Z,3.95
2018-01-18T04:18:18.485Z,3.98
2018-01-18T04:20:51.715Z,3.94
2018-01-18T07:20:13.507Z,4.07
2018-01-18T07:28:51.454Z,4.28
2018-01-18T07:37:25.910Z,4.72
2018-01-18T07:40:01.590Z,4.95
2018-01-18T07:42:32.973Z,5.24
2018-01-18T07:45:04.070Z,5.35
2018-01-18T07:47:37.782Z,5.43
2018-01-18T07:50:22.062Z,5.51
2018-01-18T07:53:02.165Z,5.59
2018-01-18T08:34:15.819Z,6.43
2018-01-18T08:36:46.975Z,6.53
2018-01-18T08:39:39.168Z,6.67
2018-01-18T08:45:17.162Z,6.94
2018-01-18T09:25:18.794Z,7.79
2018-01-18T09:28:06.023Z,7.75
